Grider Field Pine Bluff US
ICAO: KPBF
IATA: PBF
Category: Medium
Scheduled Services: No

Elevation: 206 ft
TransAlt. 18000 ft.

Airport Communications:
LITTLE ROCK APP/DEP:119.85
ASOS:120.775
LITTLE ROCK CLNC DEL:119.85
JONESBORO RDO:122.6
CTAF/UNICOM:123

KPBF Zoom In..

If you have problems with the map follow the link
https://www.worldairports.se/pages/airport.php?
ICAO=KPBF

Runways:

(A) RW 18 length 5998 ft width 150 ft
ILS 111.70 / hdg 178

(B) RW 36 length 5998 ft width 150 ft
---- / hdg 358

Location; KPBF
Day. 25 / Time. 06.53 Zulu
* Altimeter: 30.15
* Temperature: 04° c. 39.2°f.
* Wind from: 320° Speed 06 kn.
Dewpoint: -02° c.
Visibility: 10 Statute Miles.
Clouds: Overcast 2800 ft.

KPBF 250653Z AUTO 32006KT 10SM OVC028 04/M02 A3015 RMK AO2 SLP210 T00391017


Wind From 320°
Speed 06 kn.

 
 
jpsmedia worldairports.se 2020   terms of use